Time;durP1;ratioP1;P1;durP2;ratioP2;P2;SDS_P1;SDS_P2;PMS_P1;PMS_P2;Temp;Humidity;BMP_temperature;BMP_pressure;BME280_temperature;BME280_humidity;BME280_pressure;Samples;Min_cycle;Max_cycle;Signal;HPM_P1;HPM_P2
2022/05/18 00:01:06;;;;;;;;;;;14.60;99.90;;;;;;5062849;28;19925;-71
2022/05/18 00:03:41;;;;;;;;;;;14.60;99.90;;;;;;5053240;28;20329;-71
2022/05/18 00:06:13;;;;;;;;;;;14.60;99.90;;;;;;5059517;28;19964;-71
2022/05/18 00:08:44;;;;;;;;;;;14.60;99.90;;;;;;5067548;28;19925;-71
2022/05/18 00:11:18;;;;;;;;;;;14.50;99.90;;;;;;5056810;28;19931;-71
2022/05/18 00:13:51;;;;;;;;;;;14.50;99.90;;;;;;5056481;28;19924;-71
2022/05/18 00:16:23;;;;;;;;;;;14.40;99.90;;;;;;5053421;28;20409;-71
2022/05/18 00:18:56;;;;;;;;;;;14.40;99.90;;;;;;5078924;28;20426;-71
2022/05/18 00:21:28;;;;;;;;;;;14.30;99.90;;;;;;5067200;28;20011;-71
2022/05/18 00:24:00;;;;;;;;;;;14.30;99.90;;;;;;5058284;28;20369;-71
2022/05/18 00:26:31;;;;;;;;;;;14.30;99.90;;;;;;5052750;28;19925;-71
2022/05/18 00:29:03;;;;;;;;;;;14.30;99.90;;;;;;5090914;28;20270;-71
2022/05/18 00:31:34;;;;;;;;;;;14.30;99.90;;;;;;5066426;28;20005;-71
2022/05/18 00:34:06;;;;;;;;;;;14.20;99.90;;;;;;5065355;28;20452;-71
2022/05/18 00:36:39;;;;;;;;;;;14.20;99.90;;;;;;5050280;28;19947;-71
2022/05/18 00:39:10;;;;;;;;;;;14.20;99.90;;;;;;5050305;28;19948;-71
2022/05/18 00:41:42;;;;;;;;;;;14.20;99.90;;;;;;5057968;28;19939;-72
2022/05/18 00:44:14;;;;;;;;;;;14.20;99.90;;;;;;5051368;28;19929;-72
2022/05/18 00:46:45;;;;;;;;;;;14.10;99.90;;;;;;5062019;28;19936;-72
2022/05/18 00:49:12;;;;;;;;;;;14.00;99.90;;;;;;5052785;28;19929;-72
2022/05/18 00:51:48;;;;;;;;;;;14.00;99.90;;;;;;5062044;28;20373;-72
2022/05/18 00:54:22;;;;;;;;;;;14.00;99.90;;;;;;5060885;28;19925;-72
2022/05/18 00:57:00;;;;;;;;;;;14.00;99.90;;;;;;5065546;28;19924;-72
2022/05/18 00:59:40;;;;;;;;;;;14.00;99.90;;;;;;5074261;28;20381;-72
2022/05/18 01:02:13;;;;;;;;;;;14.00;99.90;;;;;;5061448;28;20403;-72
2022/05/18 01:04:46;;;;;;;;;;;14.00;99.90;;;;;;5057684;28;19928;-72
2022/05/18 01:07:22;;;;;;;;;;;14.00;99.90;;;;;;5067834;28;19928;-72
2022/05/18 01:09:54;;;;;;;;;;;13.90;99.90;;;;;;5059711;28;20022;-72
2022/05/18 01:12:25;;;;;;;;;;;13.90;99.90;;;;;;5066833;28;19928;-72
2022/05/18 01:14:59;;;;;;;;;;;13.90;99.90;;;;;;5064522;28;19924;-72
2022/05/18 01:17:33;;;;;;;;;;;13.90;99.90;;;;;;5054555;28;19925;-72
2022/05/18 01:20:07;;;;;;;;;;;13.80;99.90;;;;;;5055657;28;20028;-72
2022/05/18 01:22:57;;;;;;;;;;;13.80;99.90;;;;;;5064145;28;19924;-72
2022/05/18 01:25:37;;;;;;;;;;;13.80;99.90;;;;;;5053923;28;19925;-72
2022/05/18 01:28:04;;;;;;;;;;;13.70;99.90;;;;;;5058626;28;19925;-72
2022/05/18 01:30:37;;;;;;;;;;;13.70;99.90;;;;;;5056786;28;19932;-72
2022/05/18 01:33:09;;;;;;;;;;;13.70;99.90;;;;;;5059498;28;19925;-72
2022/05/18 01:35:42;;;;;;;;;;;13.70;99.90;;;;;;5052420;28;19924;-72
2022/05/18 01:38:14;;;;;;;;;;;13.70;99.90;;;;;;5062054;28;19958;-73
2022/05/18 01:41:09;;;;;;;;;;;13.60;99.90;;;;;;5067073;28;19939;-72
2022/05/18 01:43:44;;;;;;;;;;;13.60;99.90;;;;;;5061699;28;19929;-72
2022/05/18 01:46:16;;;;;;;;;;;13.60;99.90;;;;;;5067295;28;19925;-72
2022/05/18 01:48:49;;;;;;;;;;;13.60;99.90;;;;;;5068308;28;19929;-72
2022/05/18 01:51:44;;;;;;;;;;;13.50;99.90;;;;;;5069604;28;19924;-72
2022/05/18 01:54:15;;;;;;;;;;;13.50;99.90;;;;;;5061940;28;19924;-72
2022/05/18 01:56:47;;;;;;;;;;;13.50;99.90;;;;;;5054155;28;19947;-73
2022/05/18 01:59:19;;;;;;;;;;;13.40;99.90;;;;;;5067690;28;19936;-72
2022/05/18 02:01:50;;;;;;;;;;;13.40;99.90;;;;;;5079938;28;19951;-72
2022/05/18 02:04:22;;;;;;;;;;;13.40;99.90;;;;;;5053680;28;19936;-72
2022/05/18 02:06:54;;;;;;;;;;;13.40;99.90;;;;;;5061788;28;19928;-72
2022/05/18 02:09:26;;;;;;;;;;;13.50;99.90;;;;;;5069640;28;19924;-72
2022/05/18 02:11:58;;;;;;;;;;;13.40;99.90;;;;;;5064458;28;19932;-72
2022/05/18 02:14:30;;;;;;;;;;;13.40;99.90;;;;;;5068079;28;19924;-72
2022/05/18 02:17:02;;;;;;;;;;;13.40;99.90;;;;;;5068807;28;20404;-72
2022/05/18 02:19:33;;;;;;;;;;;13.40;99.90;;;;;;5060195;28;19925;-72
2022/05/18 02:22:05;;;;;;;;;;;13.40;99.90;;;;;;5055631;28;19928;-72
2022/05/18 02:24:37;;;;;;;;;;;13.40;99.90;;;;;;5063309;28;19924;-72
2022/05/18 02:27:08;;;;;;;;;;;13.30;99.90;;;;;;5071186;28;19924;-73
2022/05/18 02:29:40;;;;;;;;;;;13.30;99.90;;;;;;5065611;28;19925;-72
2022/05/18 02:32:11;;;;;;;;;;;13.30;99.90;;;;;;5069266;28;19928;-72
2022/05/18 02:34:43;;;;;;;;;;;13.20;99.90;;;;;;5066702;28;20015;-72
2022/05/18 02:37:15;;;;;;;;;;;13.20;99.90;;;;;;5059151;28;19929;-72
2022/05/18 02:39:46;;;;;;;;;;;13.20;99.90;;;;;;5056257;28;19925;-72
2022/05/18 02:42:18;;;;;;;;;;;13.20;99.90;;;;;;5059457;28;19929;-72
2022/05/18 02:44:49;;;;;;;;;;;13.20;99.90;;;;;;5054377;28;19925;-72
2022/05/18 02:47:22;;;;;;;;;;;13.20;99.90;;;;;;5078248;28;20389;-73
2022/05/18 02:49:54;;;;;;;;;;;13.10;99.90;;;;;;5070882;28;19935;-72
2022/05/18 02:52:26;;;;;;;;;;;13.10;99.90;;;;;;5066017;28;19928;-72
2022/05/18 02:57:48;;;;;;;;;;;13.20;99.90;;;;;;5067206;28;19925;-72
2022/05/18 03:00:20;;;;;;;;;;;13.10;99.90;;;;;;5057896;28;19925;-72
2022/05/18 03:02:46;;;;;;;;;;;13.10;99.90;;;;;;5055642;28;19947;-72
2022/05/18 03:05:13;;;;;;;;;;;13.10;99.90;;;;;;5063258;28;19924;-73
2022/05/18 03:07:45;;;;;;;;;;;13.10;99.90;;;;;;5069710;28;19932;-72
2022/05/18 03:10:18;;;;;;;;;;;13.10;99.90;;;;;;5063188;28;19947;-73
2022/05/18 03:12:50;;;;;;;;;;;13.10;99.90;;;;;;5068509;28;19931;-72
2022/05/18 03:15:21;;;;;;;;;;;13.00;99.90;;;;;;5065454;28;19928;-72
2022/05/18 03:17:53;;;;;;;;;;;13.10;99.90;;;;;;5055059;28;19932;-72
2022/05/18 03:23:33;;;;;;;;;;;13.10;99.90;;;;;;5056390;28;19928;-72
2022/05/18 03:26:05;;;;;;;;;;;13.10;99.90;;;;;;5055893;28;20408;-72
2022/05/18 03:28:37;;;;;;;;;;;13.10;99.90;;;;;;5063086;28;19947;-72
2022/05/18 03:31:09;;;;;;;;;;;13.00;99.90;;;;;;5070552;28;20197;-72
2022/05/18 03:33:40;;;;;;;;;;;12.90;99.90;;;;;;5061137;28;19970;-72
2022/05/18 03:36:13;;;;;;;;;;;12.90;99.90;;;;;;5053411;28;20063;-72
2022/05/18 03:38:45;;;;;;;;;;;12.80;99.90;;;;;;5060259;28;19933;-72
2022/05/18 03:41:18;;;;;;;;;;;12.80;99.90;;;;;;5052793;28;19924;-72
2022/05/18 03:43:49;;;;;;;;;;;12.80;99.90;;;;;;5052321;28;19932;-72
2022/05/18 03:46:21;;;;;;;;;;;12.80;99.90;;;;;;5056761;28;19924;-72
2022/05/18 03:48:53;;;;;;;;;;;12.70;99.90;;;;;;5055161;28;20385;-72
2022/05/18 03:51:25;;;;;;;;;;;12.70;99.90;;;;;;5064267;28;19929;-72
2022/05/18 03:53:56;;;;;;;;;;;12.70;99.90;;;;;;5068996;28;19944;-72
2022/05/18 03:56:29;;;;;;;;;;;12.80;99.90;;;;;;5061559;28;19924;-72
2022/05/18 03:59:01;;;;;;;;;;;12.70;99.90;;;;;;5053542;28;20293;-72
2022/05/18 04:01:32;;;;;;;;;;;12.80;99.90;;;;;;5059103;28;19928;-72
2022/05/18 04:04:04;;;;;;;;;;;12.70;99.90;;;;;;5065498;28;19925;-72
2022/05/18 04:06:36;;;;;;;;;;;12.70;99.90;;;;;;5055942;28;19931;-72
2022/05/18 04:09:07;;;;;;;;;;;12.70;99.90;;;;;;5060359;28;19925;-72
2022/05/18 04:11:39;;;;;;;;;;;12.70;99.90;;;;;;5068537;28;19932;-73
2022/05/18 04:14:10;;;;;;;;;;;12.70;99.90;;;;;;5067883;28;19939;-74
2022/05/18 04:16:44;;;;;;;;;;;12.70;99.90;;;;;;5059300;28;19933;-72
2022/05/18 04:19:16;;;;;;;;;;;12.70;99.90;;;;;;5067512;28;19931;-72
2022/05/18 04:21:48;;;;;;;;;;;12.70;99.90;;;;;;5071605;28;19931;-72
2022/05/18 04:24:14;;;;;;;;;;;12.70;99.90;;;;;;5061419;28;19924;-72
2022/05/18 04:26:41;;;;;;;;;;;12.70;99.90;;;;;;5071196;28;19959;-72
2022/05/18 04:29:13;;;;;;;;;;;12.70;99.90;;;;;;5054780;28;19925;-72
2022/05/18 04:31:45;;;;;;;;;;;12.80;99.90;;;;;;5066487;28;19931;-73
2022/05/18 04:34:17;;;;;;;;;;;12.80;99.90;;;;;;5062324;28;19924;-72
2022/05/18 04:36:49;;;;;;;;;;;12.80;99.90;;;;;;5067263;28;20391;-73
2022/05/18 04:39:15;;;;;;;;;;;12.80;99.90;;;;;;5056912;28;19935;-72
2022/05/18 04:41:42;;;;;;;;;;;12.80;99.90;;;;;;5065268;28;20381;-71
2022/05/18 04:44:13;;;;;;;;;;;12.80;99.90;;;;;;5070174;28;19925;-73
2022/05/18 04:46:45;;;;;;;;;;;12.90;99.90;;;;;;5051296;28;19929;-76
2022/05/18 04:49:17;;;;;;;;;;;13.00;99.90;;;;;;5059510;28;19939;-72
2022/05/18 04:51:48;;;;;;;;;;;13.00;99.90;;;;;;5052056;28;20459;-72
2022/05/18 04:54:20;;;;;;;;;;;13.00;99.90;;;;;;5064326;28;20572;-72
2022/05/18 04:56:51;;;;;;;;;;;13.00;99.90;;;;;;5059256;28;19931;-73
2022/05/18 04:59:23;;;;;;;;;;;13.10;99.90;;;;;;5056865;28;19928;-73
2022/05/18 05:01:55;;;;;;;;;;;13.00;99.90;;;;;;5056742;28;20015;-73
2022/05/18 05:04:26;;;;;;;;;;;13.00;99.90;;;;;;5069975;28;19925;-72
2022/05/18 05:06:58;;;;;;;;;;;13.00;99.90;;;;;;5075515;28;19931;-72
2022/05/18 05:09:30;;;;;;;;;;;13.10;99.90;;;;;;5065601;28;19929;-73
2022/05/18 05:12:02;;;;;;;;;;;13.10;99.90;;;;;;5056239;28;19967;-73
2022/05/18 05:14:36;;;;;;;;;;;13.10;99.90;;;;;;5053074;28;19925;-72
2022/05/18 05:17:03;;;;;;;;;;;13.20;99.90;;;;;;5055508;28;19934;-72
2022/05/18 05:19:35;;;;;;;;;;;13.20;99.90;;;;;;5062923;28;19930;-72
2022/05/18 05:22:07;;;;;;;;;;;13.30;99.90;;;;;;5062158;28;19928;-72
2022/05/18 05:24:38;;;;;;;;;;;13.30;99.90;;;;;;5083414;28;20564;-72
2022/05/18 05:27:10;;;;;;;;;;;13.40;99.90;;;;;;5069213;28;19947;-72
2022/05/18 05:29:41;;;;;;;;;;;13.40;99.90;;;;;;5066739;28;19924;-73
2022/05/18 05:32:13;;;;;;;;;;;13.40;99.90;;;;;;5068896;28;20290;-73
2022/05/18 05:34:45;;;;;;;;;;;13.40;99.90;;;;;;5071132;28;19924;-73
2022/05/18 05:37:16;;;;;;;;;;;13.50;99.90;;;;;;5070124;28;19932;-73
2022/05/18 05:39:48;;;;;;;;;;;13.50;99.90;;;;;;5070337;28;19925;-72
2022/05/18 05:42:15;;;;;;;;;;;13.60;99.90;;;;;;5068677;28;19935;-73
2022/05/18 05:44:46;;;;;;;;;;;13.60;99.90;;;;;;5101985;28;19931;-73
2022/05/18 05:47:18;;;;;;;;;;;13.70;99.90;;;;;;5068954;28;20554;-73
2022/05/18 05:49:49;;;;;;;;;;;13.70;99.90;;;;;;5069977;28;19932;-72
2022/05/18 05:52:21;;;;;;;;;;;13.70;99.90;;;;;;5062598;28;19929;-73
2022/05/18 05:54:53;;;;;;;;;;;13.80;99.90;;;;;;5067312;28;19962;-72
2022/05/18 05:57:25;;;;;;;;;;;13.80;99.90;;;;;;5065553;28;19929;-72
2022/05/18 05:59:56;;;;;;;;;;;14.00;99.90;;;;;;5063311;28;20419;-72
2022/05/18 06:02:37;;;;;;;;;;;14.00;99.90;;;;;;5066232;28;19956;-72
2022/05/18 06:05:09;;;;;;;;;;;14.10;99.90;;;;;;5066807;28;19932;-72
2022/05/18 06:07:41;;;;;;;;;;;14.10;99.90;;;;;;5066235;28;20455;-72
2022/05/18 06:10:12;;;;;;;;;;;14.20;99.90;;;;;;5071804;28;19925;-72
2022/05/18 06:12:44;;;;;;;;;;;14.30;99.90;;;;;;5069029;28;19932;-72
2022/05/18 06:15:17;;;;;;;;;;;14.40;99.90;;;;;;5070032;28;20414;-72
2022/05/18 06:17:48;;;;;;;;;;;14.40;99.90;;;;;;5058580;28;19925;-73
2022/05/18 06:20:20;;;;;;;;;;;14.50;99.90;;;;;;5055818;28;19936;-73
2022/05/18 06:22:52;;;;;;;;;;;14.60;99.90;;;;;;5053036;28;20352;-73
2022/05/18 06:25:23;;;;;;;;;;;14.70;99.90;;;;;;5069141;28;19943;-73
2022/05/18 06:27:55;;;;;;;;;;;14.80;99.90;;;;;;5069916;28;19932;-73
2022/05/18 06:30:27;;;;;;;;;;;14.80;99.90;;;;;;5061992;28;19929;-73
2022/05/18 06:32:58;;;;;;;;;;;15.00;99.90;;;;;;5073335;28;20269;-73
2022/05/18 06:35:25;;;;;;;;;;;15.10;99.90;;;;;;5069959;28;19925;-73
2022/05/18 06:37:57;;;;;;;;;;;15.20;99.90;;;;;;5060894;28;19931;-73
2022/05/18 06:43:19;;;;;;;;;;;15.40;99.90;;;;;;5070988;28;20404;-73
2022/05/18 06:45:51;;;;;;;;;;;15.50;99.90;;;;;;5058520;28;20277;-73
2022/05/18 06:48:22;;;;;;;;;;;15.60;99.90;;;;;;5061701;28;19924;-72
2022/05/18 06:50:54;;;;;;;;;;;15.80;99.90;;;;;;5063435;28;19925;-73
2022/05/18 06:53:25;;;;;;;;;;;15.80;99.90;;;;;;5063801;28;19932;-72
2022/05/18 06:55:57;;;;;;;;;;;15.90;99.90;;;;;;5070098;28;19924;-71
2022/05/18 06:58:29;;;;;;;;;;;16.00;99.90;;;;;;5060617;28;20296;-72
2022/05/18 07:01:01;;;;;;;;;;;16.10;99.90;;;;;;5060419;28;20393;-71
2022/05/18 07:03:32;;;;;;;;;;;16.20;99.90;;;;;;5063384;28;19929;-71
2022/05/18 07:06:05;;;;;;;;;;;16.40;99.90;;;;;;5060469;28;19929;-72
2022/05/18 07:08:31;;;;;;;;;;;16.40;99.90;;;;;;5069792;28;20203;-72
2022/05/18 07:11:04;;;;;;;;;;;16.60;99.90;;;;;;5066949;28;20002;-72
2022/05/18 07:13:35;;;;;;;;;;;16.60;99.90;;;;;;5067730;28;19924;-72
2022/05/18 07:16:07;;;;;;;;;;;16.70;99.90;;;;;;5065532;28;19924;-72
2022/05/18 07:18:39;;;;;;;;;;;16.90;99.90;;;;;;5059407;28;19929;-72
2022/05/18 07:21:10;;;;;;;;;;;17.00;99.90;;;;;;5066374;28;19928;-72
2022/05/18 07:23:42;;;;;;;;;;;17.10;99.90;;;;;;5057624;28;19929;-72
2022/05/18 07:26:14;;;;;;;;;;;17.30;99.90;;;;;;5069060;28;19929;-71
2022/05/18 07:28:46;;;;;;;;;;;17.40;99.90;;;;;;5066588;28;19933;-71
2022/05/18 07:31:19;;;;;;;;;;;17.50;99.90;;;;;;5053373;28;19925;-71
2022/05/18 07:33:51;;;;;;;;;;;17.60;99.90;;;;;;5069164;28;19935;-71
2022/05/18 07:36:22;;;;;;;;;;;17.70;99.90;;;;;;5052392;28;19931;-72
2022/05/18 07:38:54;;;;;;;;;;;17.90;99.90;;;;;;5061446;28;19928;-71
2022/05/18 07:41:26;;;;;;;;;;;18.00;99.90;;;;;;5056110;28;19933;-72
2022/05/18 07:43:57;;;;;;;;;;;18.20;99.90;;;;;;5063305;28;19932;-71
2022/05/18 07:46:29;;;;;;;;;;;18.30;99.90;;;;;;5053307;28;19928;-71
2022/05/18 07:49:01;;;;;;;;;;;18.50;99.90;;;;;;5067906;28;20396;-72
2022/05/18 07:51:32;;;;;;;;;;;18.70;99.90;;;;;;5079761;28;19924;-72
2022/05/18 07:54:04;;;;;;;;;;;18.90;99.90;;;;;;5055619;28;19924;-72
2022/05/18 07:56:36;;;;;;;;;;;19.00;99.90;;;;;;5065006;28;20342;-71
2022/05/18 07:59:08;;;;;;;;;;;19.20;99.90;;;;;;5063268;28;19924;-71
2022/05/18 08:01:40;;;;;;;;;;;19.30;99.90;;;;;;5062625;28;19924;-72
2022/05/18 08:04:11;;;;;;;;;;;19.50;99.90;;;;;;5059135;28;19924;-71
2022/05/18 08:06:43;;;;;;;;;;;19.70;99.90;;;;;;5070633;28;20305;-72
2022/05/18 08:09:15;;;;;;;;;;;19.80;99.90;;;;;;5059013;28;19936;-71
2022/05/18 08:17:27;;;;;;;;;;;20.30;99.90;;;;;;5064119;28;20398;-73
2022/05/18 08:20:02;;;;;;;;;;;20.40;99.90;;;;;;5062913;28;20388;-72
2022/05/18 08:22:34;;;;;;;;;;;20.50;99.90;;;;;;5061260;28;20023;-71
2022/05/18 08:25:06;;;;;;;;;;;20.60;99.90;;;;;;5070170;28;19976;-72
2022/05/18 08:27:42;;;;;;;;;;;20.70;99.90;;;;;;5059442;28;19929;-70
2022/05/18 08:30:15;;;;;;;;;;;20.90;99.90;;;;;;5058046;28;19932;-71
2022/05/18 08:32:47;;;;;;;;;;;21.00;99.90;;;;;;5062962;28;20312;-72
2022/05/18 08:35:19;;;;;;;;;;;21.10;99.90;;;;;;5063892;28;19924;-71
2022/05/18 08:37:50;;;;;;;;;;;21.20;99.90;;;;;;5070620;28;19930;-72
2022/05/18 08:40:42;;;;;;;;;;;21.30;99.90;;;;;;5062084;28;19931;-71
2022/05/18 08:43:12;;;;;;;;;;;21.40;99.90;;;;;;5057108;28;20424;-71
2022/05/18 08:45:43;;;;;;;;;;;21.50;99.90;;;;;;5067436;28;19935;-71
2022/05/18 08:48:33;;;;;;;;;;;21.60;99.90;;;;;;5079064;28;20023;-71
2022/05/18 08:51:11;;;;;;;;;;;21.60;99.90;;;;;;5059036;28;19928;-72
2022/05/18 08:53:49;;;;;;;;;;;21.70;99.90;;;;;;5060149;28;19935;-72
2022/05/18 08:56:24;;;;;;;;;;;21.80;99.90;;;;;;5068250;28;20416;-72
2022/05/18 08:58:56;;;;;;;;;;;21.90;99.90;;;;;;5066795;28;20301;-72
2022/05/18 09:01:28;;;;;;;;;;;22.00;99.90;;;;;;5058999;28;19936;-72
2022/05/18 09:03:57;;;;;;;;;;;22.00;99.90;;;;;;5065206;28;19932;-72
2022/05/18 09:06:34;;;;;;;;;;;22.10;99.90;;;;;;5066015;28;19928;-72
2022/05/18 09:11:54;;;;;;;;;;;22.20;99.90;;;;;;5063012;28;19928;-71
2022/05/18 09:14:27;;;;;;;;;;;22.30;99.90;;;;;;5067195;28;20024;-72
2022/05/18 09:17:18;;;;;;;;;;;22.50;99.90;;;;;;5058317;28;19925;-71
2022/05/18 09:19:56;;;;;;;;;;;22.60;99.90;;;;;;5065587;28;19932;-72
2022/05/18 09:22:35;;;;;;;;;;;22.60;99.90;;;;;;5061979;28;19929;-72
2022/05/18 09:25:13;;;;;;;;;;;22.70;99.90;;;;;;5051247;28;19932;-72
2022/05/18 09:27:56;;;;;;;;;;;22.80;99.90;;;;;;5065831;28;20415;-72
2022/05/18 09:30:48;;;;;;;;;;;22.80;99.90;;;;;;5067433;28;19929;-72
2022/05/18 09:33:19;;;;;;;;;;;22.90;99.90;;;;;;5064870;28;19932;-72
2022/05/18 09:35:57;;;;;;;;;;;23.10;99.90;;;;;;5064148;28;19924;-72
2022/05/18 09:38:33;;;;;;;;;;;23.20;99.90;;;;;;5086184;28;19928;-73
2022/05/18 09:41:09;;;;;;;;;;;23.30;99.90;;;;;;5067650;28;19925;-72
2022/05/18 09:43:47;;;;;;;;;;;23.40;99.90;;;;;;5035871;28;19935;-72
2022/05/18 09:46:20;;;;;;;;;;;23.50;99.90;;;;;;5074282;28;19925;-72
2022/05/18 09:48:52;;;;;;;;;;;23.60;99.90;;;;;;5058661;28;19928;-71
2022/05/18 09:51:24;;;;;;;;;;;23.60;99.90;;;;;;5061356;28;19936;-73
2022/05/18 09:53:52;;;;;;;;;;;23.60;99.90;;;;;;5064827;28;20312;-72
2022/05/18 09:56:28;;;;;;;;;;;23.80;99.90;;;;;;5071207;28;20015;-72
2022/05/18 09:58:56;;;;;;;;;;;23.80;99.90;;;;;;5067754;28;19944;-72
2022/05/18 10:07:30;;;;;;;;;;;24.00;99.90;;;;;;5063742;28;19931;-72
2022/05/18 10:10:01;;;;;;;;;;;24.20;99.90;;;;;;5065537;28;19935;-73
2022/05/18 10:12:38;;;;;;;;;;;24.30;99.90;;;;;;5068506;28;20291;-72
2022/05/18 10:15:22;;;;;;;;;;;24.50;99.90;;;;;;5061003;28;20426;-72
2022/05/18 10:17:59;;;;;;;;;;;24.50;99.60;;;;;;5063538;28;20392;-71
2022/05/18 10:20:32;;;;;;;;;;;24.70;99.90;;;;;;5067734;28;19925;-72
2022/05/18 10:23:04;;;;;;;;;;;24.80;99.90;;;;;;5065728;28;20377;-72
2022/05/18 10:25:41;;;;;;;;;;;24.90;98.50;;;;;;5069334;28;19928;-72
2022/05/18 10:28:23;;;;;;;;;;;24.90;99.70;;;;;;5072147;28;20304;-72
2022/05/18 10:30:59;;;;;;;;;;;25.00;97.70;;;;;;5061022;28;19939;-73
2022/05/18 10:33:37;;;;;;;;;;;25.10;97.90;;;;;;5072369;28;20392;-72
2022/05/18 10:36:16;;;;;;;;;;;25.20;98.40;;;;;;5067349;28;19936;-72
2022/05/18 10:38:52;;;;;;;;;;;25.20;97.10;;;;;;5064461;28;20419;-73
2022/05/18 10:41:28;;;;;;;;;;;25.30;97.90;;;;;;5064779;28;20423;-72
2022/05/18 10:44:02;;;;;;;;;;;25.40;95.00;;;;;;5065672;28;20664;-72
2022/05/18 10:46:44;;;;;;;;;;;25.30;95.70;;;;;;5060717;28;19936;-72
2022/05/18 10:49:27;;;;;;;;;;;25.40;95.40;;;;;;5060688;28;19928;-72
2022/05/18 10:52:09;;;;;;;;;;;25.50;94.00;;;;;;5086192;28;19924;-72
2022/05/18 10:55:01;;;;;;;;;;;25.60;93.50;;;;;;5068229;28;20286;-72
2022/05/18 10:57:38;;;;;;;;;;;25.70;92.50;;;;;;5068292;28;19929;-72
2022/05/18 11:00:12;;;;;;;;;;;25.80;91.50;;;;;;5066137;28;19928;-72
2022/05/18 11:02:47;;;;;;;;;;;25.90;90.60;;;;;;5051191;28;19994;-72
2022/05/18 11:05:39;;;;;;;;;;;25.90;90.80;;;;;;5062302;28;19954;-72
2022/05/18 11:08:14;;;;;;;;;;;25.90;86.50;;;;;;5063015;28;19924;-72
2022/05/18 11:10:46;;;;;;;;;;;26.00;90.00;;;;;;5066991;28;19947;-72
2022/05/18 11:13:24;;;;;;;;;;;26.10;85.00;;;;;;5071002;28;20381;-71
2022/05/18 11:16:01;;;;;;;;;;;26.30;86.30;;;;;;5067161;28;20430;-73
2022/05/18 11:18:44;;;;;;;;;;;26.40;86.40;;;;;;5064507;28;19967;-72
2022/05/18 11:21:28;;;;;;;;;;;26.50;84.70;;;;;;5066899;28;19925;-72
2022/05/18 11:24:03;;;;;;;;;;;26.50;86.60;;;;;;5063091;28;19948;-73
2022/05/18 11:26:41;;;;;;;;;;;26.60;87.60;;;;;;5068805;28;19947;-72
2022/05/18 11:29:13;;;;;;;;;;;26.60;85.00;;;;;;5081951;28;19925;-72
2022/05/18 11:31:51;;;;;;;;;;;26.60;80.80;;;;;;5072244;28;19924;-72
2022/05/18 11:34:25;;;;;;;;;;;26.60;85.40;;;;;;5069260;28;19928;-72
2022/05/18 11:37:14;;;;;;;;;;;26.60;82.70;;;;;;5074155;28;19928;-72
2022/05/18 11:39:54;;;;;;;;;;;26.60;82.00;;;;;;5073429;28;19924;-72
2022/05/18 11:42:41;;;;;;;;;;;26.70;82.00;;;;;;5068808;28;19928;-73
2022/05/18 11:45:20;;;;;;;;;;;26.70;83.20;;;;;;5072256;28;19947;-73
2022/05/18 11:48:11;;;;;;;;;;;26.70;81.00;;;;;;5099929;28;19932;-73
2022/05/18 11:50:58;;;;;;;;;;;26.80;82.20;;;;;;5076224;28;20010;-72
2022/05/18 11:53:55;;;;;;;;;;;26.90;83.20;;;;;;5073212;28;19931;-73
2022/05/18 11:56:37;;;;;;;;;;;27.00;82.60;;;;;;5073583;28;19928;-72
2022/05/18 11:59:38;;;;;;;;;;;27.00;82.30;;;;;;5085725;28;20026;-72
2022/05/18 12:02:28;;;;;;;;;;;27.10;80.50;;;;;;5070292;28;19932;-73
2022/05/18 12:05:13;;;;;;;;;;;27.10;78.70;;;;;;5068643;28;19928;-72
2022/05/18 12:07:50;;;;;;;;;;;27.20;76.80;;;;;;5076379;28;19928;-72
2022/05/18 12:10:24;;;;;;;;;;;27.30;77.00;;;;;;5075489;28;19924;-72
2022/05/18 12:13:01;;;;;;;;;;;27.30;77.10;;;;;;5069997;28;19982;-72
2022/05/18 12:15:50;;;;;;;;;;;27.30;76.00;;;;;;5069129;28;20392;-72
2022/05/18 12:18:27;;;;;;;;;;;27.40;76.00;;;;;;5066309;28;20595;-73
2022/05/18 12:21:04;;;;;;;;;;;27.50;76.30;;;;;;5073811;28;19939;-72
2022/05/18 12:23:34;;;;;;;;;;;27.60;75.50;;;;;;5054620;28;19964;-72
2022/05/18 12:26:01;;;;;;;;;;;27.60;74.80;;;;;;5072696;28;19932;-72
2022/05/18 12:28:33;;;;;;;;;;;27.60;75.70;;;;;;5066272;28;19935;-72
2022/05/18 12:31:04;;;;;;;;;;;27.70;79.30;;;;;;5071249;28;19935;-72
2022/05/18 12:33:43;;;;;;;;;;;27.70;77.30;;;;;;5068245;28;19929;-72
2022/05/18 12:36:23;;;;;;;;;;;27.80;76.60;;;;;;5069059;28;20819;-72
2022/05/18 12:38:57;;;;;;;;;;;27.80;76.00;;;;;;5072010;28;19928;-73
2022/05/18 12:41:30;;;;;;;;;;;27.80;77.30;;;;;;5070544;28;19928;-71
2022/05/18 12:44:07;;;;;;;;;;;27.90;74.20;;;;;;5069779;28;19928;-72
2022/05/18 12:46:43;;;;;;;;;;;27.90;73.70;;;;;;5069386;28;19929;-73
2022/05/18 12:49:19;;;;;;;;;;;27.90;74.10;;;;;;5068722;28;20308;-72
2022/05/18 12:52:05;;;;;;;;;;;28.00;75.00;;;;;;5069839;28;19959;-72
2022/05/18 12:54:33;;;;;;;;;;;28.10;71.70;;;;;;5068413;28;20328;-72
2022/05/18 12:57:05;;;;;;;;;;;28.30;72.30;;;;;;5069222;28;19928;-72
2022/05/18 12:59:46;;;;;;;;;;;28.40;73.00;;;;;;5068317;28;19933;-72
2022/05/18 13:02:30;;;;;;;;;;;28.50;71.50;;;;;;5069601;28;19928;-72
2022/05/18 13:05:10;;;;;;;;;;;28.60;70.90;;;;;;5073224;28;19924;-71
2022/05/18 13:07:41;;;;;;;;;;;28.70;73.10;;;;;;5066213;28;19933;-72
2022/05/18 13:10:15;;;;;;;;;;;28.80;70.60;;;;;;5071000;28;19931;-73
2022/05/18 13:12:48;;;;;;;;;;;28.80;68.30;;;;;;5072232;28;19939;-71
2022/05/18 13:15:20;;;;;;;;;;;28.90;69.30;;;;;;5067543;28;19932;-72
2022/05/18 13:17:57;;;;;;;;;;;28.90;67.60;;;;;;5070782;28;19931;-72
2022/05/18 13:20:32;;;;;;;;;;;29.00;66.10;;;;;;5069830;28;19932;-73
2022/05/18 13:23:00;;;;;;;;;;;29.10;66.10;;;;;;5066589;28;20494;-72
2022/05/18 13:25:33;;;;;;;;;;;29.10;67.20;;;;;;5066200;28;19935;-72
2022/05/18 13:28:06;;;;;;;;;;;29.20;64.30;;;;;;5070522;28;19924;-74
2022/05/18 13:30:48;;;;;;;;;;;29.30;61.60;;;;;;5071178;28;19935;-71
2022/05/18 13:33:21;;;;;;;;;;;29.40;61.90;;;;;;5066411;28;19929;-71
2022/05/18 13:35:52;;;;;;;;;;;29.40;64.80;;;;;;5070231;28;19924;-72
2022/05/18 13:38:26;;;;;;;;;;;29.40;64.50;;;;;;5072392;28;19944;-72
2022/05/18 13:40:59;;;;;;;;;;;29.40;64.40;;;;;;5075626;28;20006;-72
2022/05/18 13:43:32;;;;;;;;;;;29.20;64.50;;;;;;5076450;28;19936;-72
2022/05/18 13:46:09;;;;;;;;;;;29.10;65.60;;;;;;5076252;28;19979;-72
2022/05/18 13:48:41;;;;;;;;;;;29.00;65.50;;;;;;5072580;28;19924;-72
2022/05/18 13:51:16;;;;;;;;;;;29.10;64.80;;;;;;5070855;28;20332;-72
2022/05/18 13:53:50;;;;;;;;;;;29.00;62.60;;;;;;5099321;28;19928;-74
2022/05/18 13:56:23;;;;;;;;;;;29.10;62.80;;;;;;5069140;28;19942;-72
2022/05/18 13:58:59;;;;;;;;;;;29.10;61.60;;;;;;5066027;28;19940;-73
2022/05/18 14:01:32;;;;;;;;;;;29.10;64.30;;;;;;5066332;28;19951;-73
2022/05/18 14:04:04;;;;;;;;;;;29.20;65.30;;;;;;5067925;28;19928;-72
2022/05/18 14:06:36;;;;;;;;;;;29.30;62.80;;;;;;5072266;28;20010;-72
2022/05/18 14:09:08;;;;;;;;;;;29.30;62.60;;;;;;5067895;28;19925;-73
2022/05/18 14:11:35;;;;;;;;;;;29.30;64.30;;;;;;5070907;28;19929;-72
2022/05/18 14:14:03;;;;;;;;;;;29.40;61.90;;;;;;5070549;28;19932;-72
2022/05/18 14:16:41;;;;;;;;;;;29.40;61.00;;;;;;5072096;28;19924;-72
2022/05/18 14:19:17;;;;;;;;;;;29.40;62.20;;;;;;5072815;28;19931;-73
2022/05/18 14:21:51;;;;;;;;;;;29.60;63.10;;;;;;5071318;28;19939;-73
2022/05/18 14:24:26;;;;;;;;;;;29.70;62.10;;;;;;5066975;28;19929;-73
2022/05/18 14:27:01;;;;;;;;;;;29.80;62.20;;;;;;5075784;28;20030;-73
2022/05/18 14:29:38;;;;;;;;;;;29.90;61.30;;;;;;5075296;28;19924;-73
2022/05/18 14:32:11;;;;;;;;;;;30.00;59.70;;;;;;5101509;28;19931;-73
2022/05/18 14:35:09;;;;;;;;;;;30.00;59.50;;;;;;5070218;28;20388;-72
2022/05/18 14:37:41;;;;;;;;;;;30.10;58.30;;;;;;5069266;28;20019;-72
2022/05/18 14:40:15;;;;;;;;;;;30.10;58.50;;;;;;5065713;28;19924;-73
2022/05/18 14:42:48;;;;;;;;;;;30.20;59.40;;;;;;5072240;28;19942;-73
2022/05/18 14:45:23;;;;;;;;;;;30.20;58.20;;;;;;5068944;28;19924;-74
2022/05/18 14:48:07;;;;;;;;;;;30.20;58.70;;;;;;5074760;28;20404;-73
2022/05/18 14:50:40;;;;;;;;;;;30.20;59.70;;;;;;5059686;28;19928;-73
2022/05/18 14:53:12;;;;;;;;;;;30.30;60.20;;;;;;5074978;28;19928;-73
2022/05/18 14:55:49;;;;;;;;;;;30.40;59.20;;;;;;5074733;28;19931;-73
2022/05/18 14:58:22;;;;;;;;;;;30.60;60.20;;;;;;5072946;28;19935;-73
2022/05/18 15:00:57;;;;;;;;;;;30.80;58.80;;;;;;5073651;28;19928;-73
2022/05/18 15:03:30;;;;;;;;;;;31.00;58.70;;;;;;5079219;28;19925;-73
2022/05/18 15:06:06;;;;;;;;;;;31.00;57.80;;;;;;5073853;28;19928;-73
2022/05/18 15:08:57;;;;;;;;;;;31.00;56.00;;;;;;5075875;28;19935;-73
2022/05/18 15:11:33;;;;;;;;;;;31.10;55.40;;;;;;5074478;28;20316;-72
2022/05/18 15:14:17;;;;;;;;;;;31.20;56.40;;;;;;5077301;28;19931;-72
2022/05/18 15:16:52;;;;;;;;;;;31.30;56.50;;;;;;5072457;28;19928;-74
2022/05/18 15:19:25;;;;;;;;;;;31.40;54.90;;;;;;5071092;28;19928;-73